createdAt,value
2018-08-22T00:01:53.852Z,57.01
2018-08-22T00:04:21.464Z,57.52
2018-08-22T00:06:49.368Z,57.85
2018-08-22T00:09:17.645Z,57.67
2018-08-22T00:11:45.260Z,57.12
2018-08-22T00:14:12.896Z,57.86
2018-08-22T00:16:40.895Z,58.12
2018-08-22T00:19:08.494Z,57.92
2018-08-22T00:21:36.821Z,58.33
2018-08-22T00:24:04.416Z,58.14
2018-08-22T00:26:32.329Z,58.33
2018-08-22T00:29:00.245Z,57.63
2018-08-22T00:31:27.878Z,57.70
2018-08-22T00:33:55.842Z,58.22
2018-08-22T00:36:23.728Z,58.24
2018-08-22T00:38:51.364Z,57.62
2018-08-22T00:41:19.265Z,57.98
2018-08-22T00:43:46.899Z,57.92
2018-08-22T00:46:17.497Z,58.36
2018-08-22T00:48:45.084Z,58.46
2018-08-22T00:51:13.165Z,57.59
2018-08-22T00:53:40.755Z,58.43
2018-08-22T00:56:08.383Z,58.59
2018-08-22T00:58:36.413Z,58.78
2018-08-22T01:01:04.024Z,58.63
2018-08-22T01:03:31.643Z,58.16
2018-08-22T01:05:59.244Z,58.42
2018-08-22T01:08:27.166Z,57.91
2018-08-22T01:10:54.795Z,57.96
2018-08-22T01:13:23.408Z,58.73
2018-08-22T01:15:51.021Z,58.39
2018-08-22T01:18:19.091Z,58.20
2018-08-22T01:20:46.699Z,57.80
2018-08-22T01:23:14.304Z,57.87
2018-08-22T01:25:42.593Z,58.45
2018-08-22T01:28:10.641Z,58.26
2018-08-22T01:30:38.255Z,58.77
2018-08-22T01:33:05.864Z,57.55
2018-08-22T01:35:33.492Z,57.64
2018-08-22T01:38:01.397Z,57.59
2018-08-22T01:40:28.997Z,58.73
2018-08-22T01:42:56.635Z,58.01
2018-08-22T01:45:24.236Z,58.42
2018-08-22T01:47:52.099Z,58.41
2018-08-22T01:50:19.735Z,58.62
2018-08-22T01:52:47.347Z,58.62
2018-08-22T01:55:15.239Z,58.29
2018-08-22T01:57:42.856Z,58.42
2018-08-22T02:00:10.479Z,58.57
2018-08-22T02:02:38.116Z,58.54
2018-08-22T02:05:06.012Z,58.22
2018-08-22T02:07:33.629Z,57.99
2018-08-22T02:10:01.228Z,58.02
2018-08-22T02:12:29.463Z,58.02
2018-08-22T02:14:58.204Z,58.51
2018-08-22T02:17:25.802Z,58.61
2018-08-22T02:19:53.408Z,58.40
2018-08-22T02:22:21.026Z,59.17
2018-08-22T02:24:48.896Z,58.65
2018-08-22T02:27:16.541Z,58.50
2018-08-22T02:29:44.203Z,58.53
2018-08-22T02:32:11.802Z,58.93
2018-08-22T02:34:39.875Z,58.86
2018-08-22T02:37:07.470Z,58.05
2018-08-22T02:39:35.079Z,58.63
2018-08-22T02:42:02.707Z,57.91
2018-08-22T02:44:30.639Z,58.33
2018-08-22T02:46:58.246Z,57.81
2018-08-22T02:49:25.826Z,58.13
2018-08-22T02:51:53.432Z,58.52
2018-08-22T02:54:22.311Z,58.12
2018-08-22T02:56:49.930Z,58.77
2018-08-22T02:59:17.596Z,58.13
2018-08-22T03:01:45.219Z,58.40
2018-08-22T03:04:14.027Z,58.96
2018-08-22T03:06:41.628Z,59.04
2018-08-22T03:09:10.426Z,59.62
2018-08-22T03:11:38.051Z,59.13
2018-08-22T03:14:05.847Z,59.61
2018-08-22T03:16:33.579Z,59.36
2018-08-22T03:19:01.482Z,59.87
2018-08-22T03:21:29.079Z,59.53
2018-08-22T03:23:56.743Z,59.42
2018-08-22T03:26:24.423Z,60.20
2018-08-22T03:28:52.326Z,59.44
2018-08-22T03:31:19.927Z,59.36
2018-08-22T03:33:48.216Z,60.18
2018-08-22T03:36:15.865Z,59.91
2018-08-22T03:38:43.793Z,60.04
2018-08-22T03:41:11.399Z,59.38
2018-08-22T03:43:39.012Z,60.17
2018-08-22T03:46:06.639Z,60.15
2018-08-22T03:48:34.591Z,59.92
2018-08-22T03:51:02.251Z,59.61
2018-08-22T03:53:29.867Z,59.54
2018-08-22T03:55:58.442Z,60.13
2018-08-22T03:58:26.343Z,60.43
2018-08-22T04:00:53.999Z,60.65
2018-08-22T04:03:21.643Z,60.34
2018-08-22T04:05:49.274Z,60.04
2018-08-22T04:08:17.145Z,60.55
2018-08-22T04:10:44.746Z,60.08
2018-08-22T04:13:12.880Z,60.31
2018-08-22T04:15:40.526Z,60.30
2018-08-22T04:18:08.436Z,59.77
2018-08-22T04:20:36.072Z,59.60
2018-08-22T04:23:03.757Z,59.31
2018-08-22T04:25:31.378Z,59.61
2018-08-22T04:27:59.250Z,59.22
2018-08-22T04:30:26.899Z,59.94
2018-08-22T04:32:54.551Z,58.67
2018-08-22T04:35:22.495Z,59.65
2018-08-22T04:37:50.340Z,59.29
2018-08-22T04:40:17.982Z,58.76
2018-08-22T04:42:45.919Z,59.29
2018-08-22T04:45:13.531Z,59.22
2018-08-22T04:47:41.151Z,58.67
2018-08-22T04:50:09.066Z,58.97
2018-08-22T04:52:36.736Z,58.79
2018-08-22T04:55:04.426Z,58.70
2018-08-22T04:57:32.399Z,58.99
2018-08-22T05:00:00.009Z,58.44
2018-08-22T05:02:27.689Z,58.29
2018-08-22T05:04:55.632Z,58.24
2018-08-22T05:07:23.294Z,58.33
2018-08-22T05:09:50.887Z,58.34
2018-08-22T05:12:18.750Z,58.96
2018-08-22T05:14:46.396Z,59.07
2018-08-22T05:17:14.020Z,58.19
2018-08-22T05:19:42.632Z,58.40
2018-08-22T05:22:10.288Z,58.12
2018-08-22T05:24:37.974Z,58.69
2018-08-22T05:27:05.907Z,58.74
2018-08-22T05:29:33.500Z,58.68
2018-08-22T05:32:01.108Z,57.85
2018-08-22T05:34:29.759Z,57.87
2018-08-22T05:36:57.408Z,58.74
2018-08-22T05:39:25.088Z,57.83
2018-08-22T05:41:52.736Z,58.10
2018-08-22T05:44:20.409Z,57.91
2018-08-22T05:46:48.333Z,58.18
2018-08-22T05:49:16.022Z,58.72
2018-08-22T05:51:43.726Z,58.74
2018-08-22T05:54:11.614Z,58.81
2018-08-22T05:56:39.207Z,58.27
2018-08-22T05:59:06.800Z,58.31
2018-08-22T06:01:34.722Z,58.22
2018-08-22T06:04:02.343Z,58.06
2018-08-22T06:06:30.915Z,58.40
2018-08-22T06:08:58.800Z,58.98
2018-08-22T06:11:26.438Z,58.90
2018-08-22T06:13:54.082Z,58.80
2018-08-22T06:16:22.000Z,58.59
2018-08-22T06:18:49.641Z,57.99
2018-08-22T06:21:17.236Z,58.33
2018-08-22T06:23:45.131Z,58.38
2018-08-22T06:26:12.764Z,58.08
2018-08-22T06:28:40.674Z,58.47
2018-08-22T06:31:08.605Z,57.13
2018-08-22T06:33:36.247Z,57.25
2018-08-22T06:36:03.900Z,57.19
2018-08-22T06:38:31.933Z,56.63
2018-08-22T06:40:59.550Z,56.64
2018-08-22T06:43:27.235Z,55.78
2018-08-22T06:45:55.687Z,55.41
2018-08-22T06:48:23.756Z,55.54
2018-08-22T06:50:51.371Z,55.72
2018-08-22T06:53:19.255Z,54.93
2018-08-22T06:55:46.899Z,54.41
2018-08-22T06:58:15.212Z,54.79
2018-08-22T07:00:43.152Z,54.25
2018-08-22T07:03:10.864Z,54.29
2018-08-22T07:05:38.544Z,53.75
2018-08-22T07:08:06.439Z,53.83
2018-08-22T07:10:35.311Z,53.14
2018-08-22T07:13:03.206Z,52.87
2018-08-22T07:15:31.132Z,53.51
2018-08-22T07:17:58.752Z,53.07
2018-08-22T07:20:26.408Z,53.14
2018-08-22T07:22:54.290Z,52.37
2018-08-22T07:25:21.933Z,52.25
2018-08-22T07:27:49.554Z,52.12
2018-08-22T07:30:17.453Z,52.00
2018-08-22T07:32:45.056Z,52.30
2018-08-22T07:35:12.711Z,51.99
2018-08-22T07:37:40.840Z,51.08
2018-08-22T07:40:08.467Z,51.63
2018-08-22T07:42:36.615Z,50.76
2018-08-22T07:45:04.588Z,50.55
2018-08-22T07:47:34.918Z,50.94
2018-08-22T07:50:02.613Z,50.60
2018-08-22T07:52:34.295Z,50.26
2018-08-22T07:55:02.692Z,50.46
2018-08-22T07:57:32.348Z,50.27
2018-08-22T08:00:00.031Z,49.93
2018-08-22T08:02:28.388Z,49.78
2018-08-22T08:04:56.312Z,49.53
2018-08-22T08:07:23.947Z,48.98
2018-08-22T08:09:51.569Z,49.77
2018-08-22T08:12:19.740Z,49.13
2018-08-22T08:14:51.358Z,49.41
2018-08-22T08:17:20.261Z,49.03
2018-08-22T08:19:48.987Z,49.13
2018-08-22T08:22:16.658Z,48.93
2018-08-22T08:24:44.619Z,48.42
2018-08-22T08:27:12.481Z,49.25
2018-08-22T08:29:40.103Z,48.48
2018-08-22T08:32:08.837Z,49.20
2018-08-22T08:34:36.815Z,48.91
2018-08-22T08:37:05.772Z,47.91
2018-08-22T08:39:33.816Z,47.61
2018-08-22T08:42:01.480Z,48.08
2018-08-22T08:44:29.941Z,46.77
2018-08-22T08:47:01.051Z,46.91
2018-08-22T08:49:30.125Z,46.45
2018-08-22T08:51:58.038Z,46.43
2018-08-22T08:54:25.939Z,46.87
2018-08-22T08:56:53.615Z,46.45
2018-08-22T08:59:22.228Z,46.06
2018-08-22T09:01:50.293Z,46.11
2018-08-22T09:04:17.956Z,46.63
2018-08-22T09:06:45.642Z,45.69
2018-08-22T09:09:14.914Z,46.46
2018-08-22T09:11:49.495Z,46.31
2018-08-22T09:14:17.147Z,46.22
2018-08-22T09:16:45.595Z,45.24
2018-08-22T09:19:13.209Z,45.86
2018-08-22T09:21:41.456Z,44.68
2018-08-22T09:24:09.427Z,44.71
2018-08-22T09:26:39.849Z,44.91
2018-08-22T09:29:08.039Z,45.01
2018-08-22T09:31:35.953Z,44.42
2018-08-22T09:34:04.219Z,44.79
2018-08-22T09:36:31.814Z,44.66
2018-08-22T09:38:59.749Z,44.40
2018-08-22T09:41:27.557Z,43.53
2018-08-22T09:43:56.207Z,43.63
2018-08-22T09:46:25.419Z,43.40
2018-08-22T09:48:56.842Z,41.95
2018-08-22T09:51:24.551Z,42.10
2018-08-22T09:53:53.115Z,40.99
2018-08-22T09:56:21.287Z,39.90
2018-08-22T09:58:48.932Z,39.50
2018-08-22T10:01:21.759Z,38.00
2018-08-22T10:03:52.793Z,38.04
2018-08-22T10:06:20.420Z,38.09
2018-08-22T10:08:48.605Z,37.29
2018-08-22T10:11:16.300Z,36.62
2018-08-22T10:13:44.813Z,36.92
2018-08-22T10:16:12.692Z,36.42
2018-08-22T10:18:41.451Z,35.73
2018-08-22T10:21:09.084Z,35.75
2018-08-22T10:23:37.031Z,36.41
2018-08-22T10:26:05.487Z,37.57
2018-08-22T10:28:33.127Z,38.09
2018-08-22T10:31:02.252Z,38.88
2018-08-22T10:33:30.670Z,37.18
2018-08-22T10:36:02.030Z,37.86
2018-08-22T10:38:30.012Z,37.11
2018-08-22T10:40:58.719Z,36.24
2018-08-22T10:43:28.111Z,35.29
2018-08-22T10:45:56.157Z,35.10
2018-08-22T10:48:24.634Z,35.07
2018-08-22T10:50:52.391Z,37.43
2018-08-22T10:53:21.002Z,37.89
2018-08-22T10:55:48.688Z,39.85
2018-08-22T10:58:16.331Z,38.60
2018-08-22T11:00:44.271Z,35.95
2018-08-22T11:03:11.905Z,34.55
2018-08-22T11:05:39.551Z,34.94
2018-08-22T11:08:08.059Z,33.88
2018-08-22T11:10:35.757Z,35.29
2018-08-22T11:13:03.483Z,34.60
2018-08-22T11:15:31.426Z,33.80
2018-08-22T11:17:59.300Z,34.99
2018-08-22T11:20:31.585Z,33.24
2018-08-22T11:22:59.516Z,32.48
2018-08-22T11:25:28.051Z,31.03
2018-08-22T11:27:55.878Z,30.48
2018-08-22T11:30:24.839Z,30.17
2018-08-22T11:32:53.683Z,31.57
2018-08-22T11:35:21.569Z,33.74
2018-08-22T11:37:50.412Z,35.69
2018-08-22T11:40:20.664Z,35.34
2018-08-22T11:42:48.327Z,34.26
2018-08-22T11:45:17.283Z,33.28
2018-08-22T11:47:45.907Z,32.59
2018-08-22T11:50:13.514Z,32.21
2018-08-22T11:52:41.407Z,31.14
2018-08-22T11:55:09.009Z,30.13
2018-08-22T11:57:36.641Z,29.46
2018-08-22T12:00:05.817Z,28.72
2018-08-22T12:02:33.508Z,30.50
2018-08-22T12:05:01.194Z,30.93
2018-08-22T12:07:29.610Z,31.97
2018-08-22T12:09:59.491Z,30.58
2018-08-22T12:12:31.087Z,30.68
2018-08-22T12:15:01.195Z,29.96
2018-08-22T12:17:30.526Z,29.81
2018-08-22T12:19:58.195Z,29.81
2018-08-22T12:22:28.331Z,29.61
2018-08-22T12:24:57.033Z,29.81
2018-08-22T12:27:24.732Z,29.69
2018-08-22T12:29:53.908Z,28.92
2018-08-22T12:32:21.526Z,28.78
2018-08-22T12:34:49.205Z,29.38
2018-08-22T12:37:17.284Z,29.73
2018-08-22T12:39:45.599Z,29.91
2018-08-22T12:42:15.106Z,31.86
2018-08-22T12:44:43.628Z,30.69
2018-08-22T12:47:11.846Z,29.04
2018-08-22T12:49:40.423Z,28.71
2018-08-22T12:52:08.335Z,26.66
2018-08-22T12:54:35.955Z,28.13
2018-08-22T12:57:03.607Z,28.49
2018-08-22T12:59:31.505Z,28.51
2018-08-22T13:01:59.127Z,28.18
2018-08-22T13:04:26.769Z,27.79
2018-08-22T13:06:54.633Z,26.25
2018-08-22T13:09:22.272Z,27.26
2018-08-22T13:11:49.879Z,26.21
2018-08-22T13:14:18.555Z,25.75
2018-08-22T13:16:48.355Z,26.18
2018-08-22T13:19:17.670Z,25.58
2018-08-22T13:21:46.355Z,25.76
2018-08-22T13:24:15.367Z,26.74
2018-08-22T13:26:43.780Z,26.56
2018-08-22T13:29:11.770Z,27.23
2018-08-22T13:31:40.390Z,26.26
2018-08-22T13:34:08.014Z,26.07
2018-08-22T13:36:35.903Z,26.77
2018-08-22T13:39:03.801Z,27.74
2018-08-22T13:41:32.139Z,29.12
2018-08-22T13:43:59.788Z,27.96
2018-08-22T13:46:27.427Z,27.89
2018-08-22T13:48:55.396Z,26.99
2018-08-22T13:51:23.078Z,25.88
2018-08-22T13:53:50.735Z,25.55
2018-08-22T13:56:18.668Z,25.75
2018-08-22T13:58:46.359Z,26.18
2018-08-22T14:01:13.990Z,26.17
2018-08-22T14:03:43.999Z,26.98
2018-08-22T14:06:11.631Z,27.00
2018-08-22T14:08:39.219Z,26.91
2018-08-22T14:11:08.118Z,28.12
2018-08-22T14:13:37.900Z,28.36
2018-08-22T14:16:05.603Z,28.11
2018-08-22T14:18:33.483Z,28.74
2018-08-22T14:21:01.075Z,28.99
2018-08-22T14:23:28.726Z,28.78
2018-08-22T14:26:00.584Z,29.67
2018-08-22T14:28:29.903Z,29.41
2018-08-22T14:30:58.160Z,29.42
2018-08-22T14:33:26.541Z,29.30
2018-08-22T14:35:55.724Z,29.34
2018-08-22T14:38:23.349Z,28.56
2018-08-22T14:40:51.230Z,28.56
2018-08-22T14:43:18.981Z,29.02
2018-08-22T14:45:46.616Z,29.53
2018-08-22T14:48:14.620Z,29.46
2018-08-22T14:50:43.054Z,28.00
2018-08-22T14:53:10.701Z,28.45
2018-08-22T14:55:38.690Z,28.64
2018-08-22T14:58:06.557Z,28.51
2018-08-22T15:00:35.055Z,27.19
2018-08-22T15:03:04.292Z,27.21
2018-08-22T15:05:32.393Z,27.44
2018-08-22T15:08:00.705Z,26.21
2018-08-22T15:10:28.673Z,26.09
2018-08-22T15:12:56.568Z,25.59
2018-08-22T15:15:25.150Z,26.12
2018-08-22T15:17:53.436Z,27.06
2018-08-22T15:20:21.043Z,26.36
2018-08-22T15:22:48.725Z,27.27
2018-08-22T15:25:16.615Z,26.49
2018-08-22T15:27:44.258Z,26.37
2018-08-22T15:30:11.910Z,26.06
2018-08-22T15:32:40.749Z,25.78
2018-08-22T15:35:08.410Z,26.12
2018-08-22T15:37:36.078Z,26.96
2018-08-22T15:40:04.003Z,26.16
2018-08-22T15:42:31.640Z,26.52
2018-08-22T15:44:59.251Z,26.16
2018-08-22T15:47:28.651Z,26.04
2018-08-22T15:50:02.305Z,26.13
2018-08-22T15:52:30.876Z,25.64
2018-08-22T15:55:07.366Z,25.55
2018-08-22T15:57:35.070Z,25.73
2018-08-22T16:00:02.756Z,25.39
2018-08-22T16:02:32.412Z,25.59
2018-08-22T16:05:01.140Z,25.94
2018-08-22T16:07:30.469Z,25.10
2018-08-22T16:09:58.391Z,25.26
2018-08-22T16:12:26.879Z,25.46
2018-08-22T16:14:56.355Z,25.47
2018-08-22T16:17:24.270Z,25.83
2018-08-22T16:19:54.886Z,25.31
2018-08-22T16:22:22.613Z,26.62
2018-08-22T16:24:51.236Z,27.66
2018-08-22T16:27:19.840Z,29.26
2018-08-22T16:29:47.529Z,29.62
2018-08-22T16:32:15.432Z,31.29
2018-08-22T16:34:43.854Z,32.27
2018-08-22T16:37:13.445Z,32.75
2018-08-22T16:39:42.951Z,32.48
2018-08-22T16:42:12.526Z,33.58
2018-08-22T16:44:40.705Z,34.16
2018-08-22T16:47:09.535Z,34.21
2018-08-22T16:49:39.683Z,33.87
2018-08-22T16:52:07.316Z,34.37
2018-08-22T16:54:35.236Z,35.15
2018-08-22T16:57:02.926Z,35.22
2018-08-22T16:59:30.565Z,34.69
2018-08-22T17:02:00.670Z,34.70
2018-08-22T17:04:28.802Z,35.45
2018-08-22T17:06:57.831Z,35.43
2018-08-22T17:09:26.691Z,35.56
2018-08-22T17:11:55.934Z,35.26
2018-08-22T17:14:23.914Z,36.20
2018-08-22T17:16:51.794Z,36.41
2018-08-22T17:19:20.609Z,36.44
2018-08-22T17:21:48.265Z,35.82
2018-08-22T17:24:16.183Z,35.81
2018-08-22T17:26:44.076Z,35.92
2018-08-22T17:29:11.784Z,36.80
2018-08-22T17:31:41.253Z,36.12
2018-08-22T17:34:09.833Z,36.25
2018-08-22T17:36:37.684Z,36.30
2018-08-22T17:39:06.387Z,37.04
2018-08-22T17:41:34.060Z,37.29
2018-08-22T17:44:04.420Z,37.48
2018-08-22T17:46:33.162Z,37.49
2018-08-22T17:49:00.817Z,36.99
2018-08-22T17:51:30.204Z,37.79
2018-08-22T17:53:58.310Z,37.25
2018-08-22T17:56:27.147Z,37.83
2018-08-22T17:58:56.296Z,38.36
2018-08-22T18:01:24.564Z,38.35
2018-08-22T18:03:54.324Z,38.46
2018-08-22T18:06:24.309Z,38.03
2018-08-22T18:08:52.371Z,38.96
2018-08-22T18:11:21.633Z,38.55
2018-08-22T18:13:51.956Z,39.24
2018-08-22T18:16:22.484Z,38.62
2018-08-22T18:18:50.776Z,38.65
2018-08-22T18:21:19.300Z,39.70
2018-08-22T18:23:54.917Z,38.88
2018-08-22T18:26:22.589Z,39.08
2018-08-22T18:28:56.508Z,39.31
2018-08-22T18:31:25.307Z,39.36
2018-08-22T18:33:55.692Z,39.74
2018-08-22T18:36:26.520Z,39.92
2018-08-22T18:38:59.450Z,40.16
2018-08-22T18:41:27.542Z,40.41
2018-08-22T18:43:56.114Z,39.99
2018-08-22T18:46:25.154Z,40.18
2018-08-22T18:48:53.761Z,40.87
2018-08-22T18:51:21.891Z,40.81
2018-08-22T18:53:50.378Z,40.70
2018-08-22T18:56:18.356Z,40.67
2018-08-22T18:58:46.057Z,41.40
2018-08-22T19:01:14.937Z,41.66
2018-08-22T19:03:42.604Z,41.17
2018-08-22T19:06:10.838Z,41.38
2018-08-22T19:08:41.439Z,41.78
2018-08-22T19:11:10.847Z,41.45
2018-08-22T19:13:41.222Z,41.72
2018-08-22T19:16:10.590Z,41.94
2018-08-22T19:18:38.611Z,41.80
2018-08-22T19:21:08.334Z,42.63
2018-08-22T19:23:37.924Z,42.25
2018-08-22T19:26:06.622Z,42.93
2018-08-22T19:28:39.947Z,42.85
2018-08-22T19:31:09.749Z,42.25
2018-08-22T19:33:38.017Z,43.15
2018-08-22T19:36:05.859Z,43.11
2018-08-22T19:38:33.814Z,42.99
2018-08-22T19:41:02.734Z,43.01
2018-08-22T19:43:30.475Z,42.74
2018-08-22T19:45:58.960Z,43.17
2018-08-22T19:48:26.567Z,43.40
2018-08-22T19:50:55.481Z,42.90
2018-08-22T19:53:26.946Z,43.50
2018-08-22T19:55:54.575Z,43.08
2018-08-22T19:58:28.524Z,43.22
2018-08-22T20:00:57.188Z,43.66
2018-08-22T20:03:28.818Z,43.72
2018-08-22T20:05:56.740Z,43.55
2018-08-22T20:08:29.993Z,43.94
2018-08-22T20:10:58.272Z,43.86
2018-08-22T20:13:26.383Z,44.08
2018-08-22T20:15:55.323Z,44.43
2018-08-22T20:18:25.364Z,44.64
2018-08-22T20:20:53.595Z,44.16
2018-08-22T20:23:22.473Z,45.08
2018-08-22T20:25:51.250Z,44.54
2018-08-22T20:28:19.172Z,44.46
2018-08-22T20:30:47.732Z,45.44
2018-08-22T20:33:15.469Z,44.52
2018-08-22T20:35:43.395Z,45.50
2018-08-22T20:38:12.709Z,45.36
2018-08-22T20:40:40.653Z,45.43
2018-08-22T20:43:09.690Z,45.60
2018-08-22T20:45:40.483Z,45.71
2018-08-22T20:48:08.859Z,45.68
2018-08-22T20:50:37.950Z,45.96
2018-08-22T20:53:06.774Z,45.31
2018-08-22T20:55:34.645Z,45.89
2018-08-22T20:58:04.124Z,45.19
2018-08-22T21:00:33.272Z,45.54
2018-08-22T21:03:00.956Z,45.41
2018-08-22T21:05:28.919Z,46.29
2018-08-22T21:07:57.148Z,45.57
2018-08-22T21:10:24.782Z,45.44
2018-08-22T21:12:52.865Z,45.88
2018-08-22T21:15:24.598Z,46.21
2018-08-22T21:17:53.283Z,46.04
2018-08-22T21:20:25.080Z,46.04
2018-08-22T21:22:53.440Z,46.07
2018-08-22T21:25:22.083Z,46.36
2018-08-22T21:27:50.546Z,47.00
2018-08-22T21:30:18.486Z,47.29
2018-08-22T21:32:48.843Z,47.06
2018-08-22T21:35:22.906Z,47.72
2018-08-22T21:37:51.137Z,47.84
2018-08-22T21:40:19.697Z,47.87
2018-08-22T21:42:47.952Z,48.36
2018-08-22T21:45:15.611Z,48.34
2018-08-22T21:47:43.571Z,48.53
2018-08-22T21:50:11.269Z,48.09
2018-08-22T21:52:39.697Z,48.36
2018-08-22T21:55:11.332Z,48.16
2018-08-22T21:57:40.007Z,47.94
2018-08-22T22:00:12.073Z,48.83
2018-08-22T22:02:45.895Z,48.71
2018-08-22T22:05:13.939Z,48.08
2018-08-22T22:07:41.887Z,48.47
2018-08-22T22:10:12.984Z,48.18
2018-08-22T22:12:40.619Z,48.73
2018-08-22T22:15:13.740Z,48.16
2018-08-22T22:17:41.472Z,48.07
2018-08-22T22:20:09.208Z,48.66
2018-08-22T22:22:37.169Z,48.26
2018-08-22T22:25:05.231Z,48.18
2018-08-22T22:27:32.944Z,48.69
2018-08-22T22:30:03.883Z,48.59
2018-08-22T22:32:32.319Z,48.71
2018-08-22T22:35:00.980Z,49.60
2018-08-22T22:37:29.285Z,49.09
2018-08-22T22:40:00.845Z,49.88
2018-08-22T22:42:30.014Z,50.02
2018-08-22T22:45:00.745Z,50.07
2018-08-22T22:47:33.636Z,49.86
2018-08-22T22:50:01.831Z,49.69
2018-08-22T22:52:29.618Z,50.50
2018-08-22T22:54:59.392Z,50.03
2018-08-22T22:57:28.482Z,50.09
2018-08-22T22:59:58.894Z,50.76
2018-08-22T23:02:27.688Z,50.11
2018-08-22T23:04:56.542Z,50.76
2018-08-22T23:07:27.569Z,51.26
2018-08-22T23:09:56.311Z,50.61
2018-08-22T23:12:35.197Z,50.99
2018-08-22T23:15:02.847Z,51.51
2018-08-22T23:17:30.513Z,50.85
2018-08-22T23:20:02.409Z,51.07
2018-08-22T23:22:30.734Z,50.72
2018-08-22T23:24:58.365Z,51.50
2018-08-22T23:27:27.859Z,51.75
2018-08-22T23:29:55.514Z,51.28
2018-08-22T23:32:23.130Z,51.34
2018-08-22T23:34:50.776Z,51.72
2018-08-22T23:37:19.365Z,51.75
2018-08-22T23:39:46.962Z,51.51
2018-08-22T23:42:14.599Z,51.66
2018-08-22T23:44:42.350Z,52.80
2018-08-22T23:47:10.009Z,52.99
2018-08-22T23:49:41.624Z,52.99
2018-08-22T23:52:09.822Z,52.80
2018-08-22T23:54:39.468Z,52.98
2018-08-22T23:57:07.599Z,53.00
2018-08-22T23:59:35.212Z,52.82
